Time;durP1;ratioP1;P1;durP2;ratioP2;P2;SDS_P1;SDS_P2;PMS_P1;PMS_P2;Temp;Humidity;BMP_temperature;BMP_pressure;BME280_temperature;BME280_humidity;BME280_pressure;Samples;Min_cycle;Max_cycle;Signal;HPM_P1;HPM_P2
2021/01/10 00:00:01;;;;;;;14.43;9.18;;;0.70;99.90;;;;;;6052800;23;20192;-81
2021/01/10 00:02:28;;;;;;;11.73;8.63;;;0.70;99.90;;;;;;6051961;23;20182;-82
2021/01/10 00:04:55;;;;;;;12.48;10.80;;;0.70;99.90;;;;;;6048746;23;20178;-82
2021/01/10 00:07:25;;;;;;;11.60;10.40;;;0.70;99.90;;;;;;6049750;23;20206;-81
2021/01/10 00:09:51;;;;;;;12.23;11.02;;;0.80;99.90;;;;;;6048252;23;20182;-82
2021/01/10 00:12:22;;;;;;;12.15;10.45;;;0.80;99.90;;;;;;6048742;23;20182;-82
2021/01/10 00:14:50;;;;;;;12.27;10.20;;;0.80;99.90;;;;;;6048606;23;20209;-81
2021/01/10 00:17:16;;;;;;;12.25;9.73;;;0.80;99.90;;;;;;6048812;23;20205;-81
2021/01/10 00:19:43;;;;;;;15.30;10.57;;;0.80;99.90;;;;;;6048423;23;20197;-81
2021/01/10 00:22:11;;;;;;;10.75;8.88;;;0.80;99.90;;;;;;6048217;23;20190;-82
2021/01/10 00:24:38;;;;;;;13.02;11.68;;;0.80;99.90;;;;;;6050254;23;20183;-82
2021/01/10 00:27:07;;;;;;;13.27;9.70;;;0.70;99.90;;;;;;6050157;23;20182;-80
2021/01/10 00:29:34;;;;;;;12.77;9.57;;;0.70;99.90;;;;;;6049926;23;20186;-82
2021/01/10 00:32:01;;;;;;;14.18;9.60;;;0.60;99.90;;;;;;6049128;23;20193;-82
2021/01/10 00:34:27;;;;;;;13.43;8.90;;;0.60;99.90;;;;;;6050383;23;20229;-83
2021/01/10 00:36:53;;;;;;;14.55;10.82;;;0.50;99.90;;;;;;6049898;23;20185;-82
2021/01/10 00:39:20;;;;;;;11.82;9.50;;;0.30;99.90;;;;;;6049545;23;20238;-82
2021/01/10 00:41:46;;;;;;;10.45;9.38;;;0.30;99.90;;;;;;6049898;23;20186;-82
2021/01/10 00:44:12;;;;;;;12.88;10.45;;;0.30;99.90;;;;;;6050044;23;20186;-81
2021/01/10 00:46:39;;;;;;;9.85;8.75;;;0.30;99.90;;;;;;6049628;23;20190;-82
2021/01/10 00:49:06;;;;;;;14.00;10.00;;;0.20;99.90;;;;;;6050367;23;20212;-80
2021/01/10 00:51:32;;;;;;;10.05;8.68;;;0.20;99.90;;;;;;6049261;23;20189;-83
2021/01/10 00:53:58;;;;;;;13.05;11.10;;;0.30;99.90;;;;;;6050138;23;20208;-82
2021/01/10 00:56:24;;;;;;;11.63;7.80;;;0.30;99.90;;;;;;6050173;23;20217;-82
2021/01/10 00:58:51;;;;;;;9.52;8.60;;;0.30;99.90;;;;;;6050192;23;20217;-82
2021/01/10 01:01:17;;;;;;;9.68;8.25;;;0.30;99.90;;;;;;6049632;23;20192;-81
2021/01/10 01:03:43;;;;;;;12.45;9.27;;;0.40;99.90;;;;;;6049114;23;20192;-81
2021/01/10 01:06:12;;;;;;;13.32;8.48;;;0.40;99.90;;;;;;6049142;23;20186;-82
2021/01/10 01:08:38;;;;;;;12.70;8.77;;;0.40;99.90;;;;;;6048731;23;20549;-82
2021/01/10 01:11:04;;;;;;;11.63;8.10;;;0.50;99.90;;;;;;6049153;23;20189;-81
2021/01/10 01:13:30;;;;;;;14.27;10.60;;;0.40;99.90;;;;;;6049089;23;20182;-83
2021/01/10 01:15:57;;;;;;;10.18;7.88;;;0.40;99.90;;;;;;6047873;23;20205;-82
2021/01/10 01:18:23;;;;;;;12.90;8.88;;;0.40;99.90;;;;;;6049390;23;20206;-82
2021/01/10 01:20:51;;;;;;;14.23;11.18;;;0.40;99.90;;;;;;6048911;23;20528;-80
2021/01/10 01:23:18;;;;;;;9.50;8.57;;;0.40;99.90;;;;;;6049188;23;20201;-81
2021/01/10 01:25:45;;;;;;;10.98;8.77;;;0.40;99.90;;;;;;6048594;23;20181;-82
2021/01/10 01:28:11;;;;;;;14.05;9.98;;;0.40;99.90;;;;;;6048677;23;20202;-82
2021/01/10 01:30:37;;;;;;;8.15;6.82;;;0.40;99.90;;;;;;6047799;23;20240;-82
2021/01/10 01:33:03;;;;;;;13.25;8.93;;;0.40;99.90;;;;;;6048226;23;20214;-80
2021/01/10 01:35:29;;;;;;;11.27;8.70;;;0.40;99.90;;;;;;6048062;23;20229;-82
2021/01/10 01:37:57;;;;;;;9.45;7.82;;;0.40;99.90;;;;;;6048690;23;20202;-80
2021/01/10 01:40:24;;;;;;;7.90;7.20;;;0.40;99.90;;;;;;6048349;23;20189;-82
2021/01/10 01:42:50;;;;;;;9.68;8.10;;;0.50;99.90;;;;;;6048101;23;20186;-82
2021/01/10 01:45:16;;;;;;;10.07;9.02;;;0.40;99.90;;;;;;6048814;23;20179;-82
2021/01/10 01:47:43;;;;;;;10.82;8.38;;;0.40;99.90;;;;;;6047756;23;20706;-82
2021/01/10 01:50:10;;;;;;;12.07;8.20;;;0.40;99.90;;;;;;6048202;23;20182;-82
2021/01/10 01:52:36;;;;;;;12.90;9.07;;;0.40;99.90;;;;;;6047196;23;20218;-82
2021/01/10 01:55:04;;;;;;;12.15;8.27;;;0.40;99.90;;;;;;6048003;23;20198;-82
2021/01/10 01:57:31;;;;;;;14.63;10.02;;;0.40;99.90;;;;;;6048465;23;20216;-82
2021/01/10 01:59:57;;;;;;;9.93;7.85;;;0.40;99.90;;;;;;6047901;23;20195;-82
2021/01/10 02:02:24;;;;;;;13.27;10.20;;;0.40;99.90;;;;;;6048285;23;20185;-82
2021/01/10 02:04:56;;;;;;;8.93;7.80;;;0.30;99.90;;;;;;6047960;23;20246;-81
2021/01/10 02:07:27;;;;;;;12.55;8.82;;;0.30;99.90;;;;;;6048565;23;20210;-82
2021/01/10 02:09:56;;;;;;;13.35;8.68;;;0.30;99.90;;;;;;6048333;23;20610;-82
2021/01/10 02:12:24;;;;;;;13.05;8.73;;;0.30;99.90;;;;;;6047881;23;20190;-82
2021/01/10 02:14:56;;;;;;;9.57;7.07;;;0.30;99.90;;;;;;6047118;23;20206;-81
2021/01/10 02:17:23;;;;;;;14.48;8.20;;;0.30;99.90;;;;;;6047953;23;20202;-82
2021/01/10 02:19:56;;;;;;;13.27;7.97;;;0.10;99.90;;;;;;6047500;23;20214;-82
2021/01/10 02:22:27;;;;;;;12.65;8.98;;;0.20;99.90;;;;;;6047791;23;20180;-81
2021/01/10 02:24:54;;;;;;;10.65;8.65;;;0.20;99.90;;;;;;6047861;23;20174;-82
2021/01/10 02:27:21;;;;;;;10.15;7.85;;;0.30;99.90;;;;;;6047483;23;20243;-82
2021/01/10 02:29:48;;;;;;;12.20;8.05;;;0.30;99.90;;;;;;6047374;23;20241;-82
2021/01/10 02:32:17;;;;;;;9.02;7.32;;;0.30;99.90;;;;;;6048213;23;20193;-82
2021/01/10 02:34:45;;;;;;;11.20;7.80;;;0.40;99.90;;;;;;6047399;23;20198;-82
2021/01/10 02:37:23;;;;;;;10.10;8.05;;;0.30;99.90;;;;;;6047889;23;20552;-81
2021/01/10 02:40:01;;;;;;;11.35;8.27;;;0.30;99.90;;;;;;6047575;23;20169;-82
2021/01/10 02:42:36;;;;;;;11.82;9.23;;;0.30;99.90;;;;;;6046759;23;20170;-82
2021/01/10 02:45:06;;;;;;;10.63;7.93;;;0.30;99.90;;;;;;6047390;23;20166;-82
2021/01/10 02:47:32;;;;;;;9.80;8.00;;;0.30;99.90;;;;;;6047971;23;20210;-82
2021/01/10 02:49:59;;;;;;;10.35;8.55;;;0.20;99.90;;;;;;6047610;23;20196;-81
2021/01/10 02:52:25;;;;;;;11.48;8.52;;;0.20;99.90;;;;;;6047269;23;20182;-81
2021/01/10 02:54:51;;;;;;;11.70;7.57;;;0.10;99.90;;;;;;6046971;23;20201;-82
2021/01/10 02:57:24;;;;;;;12.98;9.40;;;0.10;99.90;;;;;;6047622;23;20206;-82
2021/01/10 02:59:51;;;;;;;9.10;8.20;;;0.00;99.90;;;;;;6047508;23;20173;-83
2021/01/10 03:02:19;;;;;;;12.80;8.93;;;-0.10;99.90;;;;;;6046134;23;20249;-82
2021/01/10 03:04:46;;;;;;;16.42;9.90;;;-0.10;99.90;;;;;;6046974;23;20178;-82
2021/01/10 03:07:13;;;;;;;9.45;7.63;;;-0.20;99.90;;;;;;6046829;23;20206;-82
2021/01/10 03:09:40;;;;;;;13.55;9.50;;;-0.20;99.90;;;;;;6046693;23;20215;-82
2021/01/10 03:12:14;;;;;;;15.88;10.00;;;-0.20;99.90;;;;;;6047265;23;20186;-82
2021/01/10 03:14:42;;;;;;;11.63;8.45;;;-0.20;99.90;;;;;;6046647;23;20566;-82
2021/01/10 03:17:13;;;;;;;9.25;8.35;;;-0.30;99.90;;;;;;6047092;23;20193;-82
2021/01/10 03:19:39;;;;;;;10.27;8.75;;;-0.40;99.90;;;;;;6046939;23;20166;-82
2021/01/10 03:22:05;;;;;;;12.90;9.38;;;-0.40;99.90;;;;;;6046248;23;20213;-82
2021/01/10 03:24:31;;;;;;;11.02;9.93;;;-0.50;99.90;;;;;;6047098;23;20182;-82
2021/01/10 03:26:57;;;;;;;17.23;8.55;;;-0.50;99.90;;;;;;6046513;23;20189;-80
2021/01/10 03:29:24;;;;;;;11.50;8.90;;;-0.60;99.90;;;;;;6046449;23;20217;-81
2021/01/10 03:31:50;;;;;;;10.82;8.25;;;-0.60;99.90;;;;;;6046636;23;20210;-81
2021/01/10 03:34:17;;;;;;;15.52;9.27;;;-0.60;99.90;;;;;;6046098;23;20204;-82
2021/01/10 03:36:43;;;;;;;11.10;8.77;;;-0.60;99.90;;;;;;6046265;23;20186;-81
2021/01/10 03:39:09;;;;;;;13.63;8.00;;;-0.70;99.90;;;;;;6046185;23;20206;-82
2021/01/10 03:41:35;;;;;;;9.98;8.55;;;-0.60;99.90;;;;;;6045441;23;20189;-82
2021/01/10 03:44:01;;;;;;;11.35;8.45;;;-0.60;99.90;;;;;;6044328;23;20190;-82
2021/01/10 03:46:28;;;;;;;10.93;9.00;;;-0.60;99.90;;;;;;6044924;23;20185;-81
2021/01/10 03:48:54;;;;;;;13.98;8.60;;;-0.60;99.90;;;;;;6045977;23;20244;-81
2021/01/10 03:51:26;;;;;;;13.40;10.45;;;-0.50;99.90;;;;;;6041715;23;20534;-80
2021/01/10 03:53:52;;;;;;;10.68;9.20;;;-0.50;99.90;;;;;;6042923;23;20166;-81
2021/01/10 03:56:19;;;;;;;9.90;8.75;;;-0.50;99.90;;;;;;6041632;23;20648;-81
2021/01/10 03:58:45;;;;;;;10.07;8.82;;;-0.50;99.90;;;;;;6043432;23;20202;-81
2021/01/10 04:01:11;;;;;;;12.10;8.88;;;-0.50;99.90;;;;;;6044686;23;20185;-81
2021/01/10 04:03:37;;;;;;;10.77;7.50;;;-0.40;99.90;;;;;;6044722;23;20213;-81
2021/01/10 04:06:04;;;;;;;14.88;8.95;;;-0.40;99.90;;;;;;6044820;23;20178;-81
2021/01/10 04:08:31;;;;;;;13.15;9.27;;;-0.40;99.90;;;;;;6044741;23;20214;-81
2021/01/10 04:10:57;;;;;;;11.55;8.85;;;-0.40;99.90;;;;;;6044997;23;20184;-81
2021/01/10 04:13:23;;;;;;;10.30;8.60;;;-0.30;99.90;;;;;;6043973;23;20199;-81
2021/01/10 04:15:49;;;;;;;16.38;10.13;;;-0.40;99.90;;;;;;6044647;23;20205;-81
2021/01/10 04:18:16;;;;;;;13.80;8.57;;;-0.40;99.90;;;;;;6045129;23;20212;-81
2021/01/10 04:20:42;;;;;;;9.82;8.23;;;-0.40;99.90;;;;;;6045209;23;20190;-81
2021/01/10 04:23:08;;;;;;;10.10;8.90;;;-0.40;99.90;;;;;;6044483;23;20186;-82
2021/01/10 04:25:35;;;;;;;12.00;9.00;;;-0.40;99.90;;;;;;6045010;23;20261;-81
2021/01/10 04:28:01;;;;;;;11.27;9.90;;;-0.40;99.90;;;;;;6043622;23;20206;-81
2021/01/10 04:30:27;;;;;;;14.38;8.10;;;-0.40;99.90;;;;;;6044804;23;20182;-81
2021/01/10 04:32:54;;;;;;;10.95;8.77;;;-0.40;99.90;;;;;;6044491;23;20182;-81
2021/01/10 04:35:20;;;;;;;10.07;8.77;;;-0.40;99.90;;;;;;6044137;23;20202;-81
2021/01/10 04:37:46;;;;;;;10.27;8.25;;;-0.40;99.90;;;;;;6043925;23;20202;-81
2021/01/10 04:40:13;;;;;;;14.02;9.10;;;-0.40;99.90;;;;;;6043763;23;20654;-81
2021/01/10 04:42:41;;;;;;;10.10;8.02;;;-0.50;99.90;;;;;;6043756;23;20187;-81
2021/01/10 04:45:08;;;;;;;15.02;10.05;;;-0.50;99.90;;;;;;6044221;23;20201;-81
2021/01/10 04:47:35;;;;;;;10.77;8.20;;;-0.40;99.90;;;;;;6043710;23;20209;-81
2021/01/10 04:50:02;;;;;;;12.60;9.02;;;-0.40;99.90;;;;;;6044748;23;20186;-81
2021/01/10 04:52:31;;;;;;;12.35;8.73;;;-0.30;99.90;;;;;;6044352;23;20178;-81
2021/01/10 04:54:57;;;;;;;8.55;6.82;;;-0.30;99.90;;;;;;6044024;23;20265;-81
2021/01/10 04:57:27;;;;;;;8.45;5.95;;;-0.30;99.90;;;;;;6044150;23;20208;-81
2021/01/10 04:59:55;;;;;;;7.47;6.63;;;-0.20;99.90;;;;;;6044291;23;20644;-81
2021/01/10 05:02:25;;;;;;;8.43;6.65;;;-0.10;99.90;;;;;;6043537;23;20185;-81
2021/01/10 05:04:51;;;;;;;7.93;6.03;;;-0.10;99.90;;;;;;6044603;23;20181;-81
2021/01/10 05:07:17;;;;;;;7.80;5.57;;;0.00;99.90;;;;;;6043835;23;20691;-81
2021/01/10 05:09:46;;;;;;;6.45;5.40;;;0.10;99.90;;;;;;6043849;23;20190;-81
2021/01/10 05:12:12;;;;;;;6.78;5.97;;;0.10;99.90;;;;;;6044027;23;20248;-81
2021/01/10 05:14:38;;;;;;;7.45;6.50;;;0.10;99.90;;;;;;6043638;23;20207;-81
2021/01/10 05:17:05;;;;;;;8.73;5.75;;;0.20;99.90;;;;;;6044138;23;20186;-81
2021/01/10 05:19:32;;;;;;;6.95;5.80;;;0.20;99.90;;;;;;6043971;23;20189;-81
2021/01/10 05:22:05;;;;;;;6.03;5.53;;;0.30;99.90;;;;;;6043853;23;20186;-81
2021/01/10 05:24:31;;;;;;;4.90;4.38;;;0.30;99.90;;;;;;6043941;23;20167;-81
2021/01/10 05:26:58;;;;;;;7.70;5.72;;;0.40;99.90;;;;;;6044066;23;20189;-81
2021/01/10 05:29:26;;;;;;;5.75;5.18;;;0.40;99.90;;;;;;6044424;23;20186;-80
2021/01/10 05:31:53;;;;;;;6.30;5.63;;;0.50;99.90;;;;;;6043783;23;20182;-80
2021/01/10 05:34:22;;;;;;;7.65;6.25;;;0.50;99.90;;;;;;6043927;23;20883;-81
2021/01/10 05:36:48;;;;;;;6.80;6.13;;;0.50;99.90;;;;;;6043637;23;20182;-81
2021/01/10 05:39:16;;;;;;;6.70;5.40;;;0.60;99.90;;;;;;6044241;23;20202;-81
2021/01/10 05:41:50;;;;;;;6.90;6.18;;;0.60;99.90;;;;;;6043342;23;20647;-81
2021/01/10 05:44:16;;;;;;;9.23;6.80;;;0.70;99.90;;;;;;6044115;23;20549;-81
2021/01/10 05:46:43;;;;;;;7.10;5.57;;;0.70;99.90;;;;;;6043658;23;20197;-81
2021/01/10 05:49:17;;;;;;;5.70;5.10;;;0.70;99.90;;;;;;6043763;23;20201;-81
2021/01/10 05:51:45;;;;;;;10.88;7.43;;;0.80;99.90;;;;;;6043255;23;20177;-81
2021/01/10 05:54:32;;;;;;;8.35;6.25;;;0.80;99.90;;;;;;6043203;23;20182;-81
2021/01/10 05:56:58;;;;;;;6.75;5.47;;;0.80;99.90;;;;;;6043537;23;20171;-81
2021/01/10 05:59:25;;;;;;;7.40;6.07;;;0.90;99.90;;;;;;6043260;23;20516;-81
2021/01/10 06:01:54;;;;;;;7.85;5.65;;;0.90;99.90;;;;;;6043514;23;20189;-81
2021/01/10 06:04:23;;;;;;;9.98;7.03;;;0.90;99.90;;;;;;6043201;23;20522;-81
2021/01/10 06:06:50;;;;;;;6.75;5.57;;;0.80;99.90;;;;;;6043807;23;20223;-81
2021/01/10 06:09:17;;;;;;;7.30;5.93;;;0.80;99.90;;;;;;6043713;23;20232;-80
2021/01/10 06:11:43;;;;;;;7.60;6.15;;;0.80;99.90;;;;;;6042541;23;20182;-81
2021/01/10 06:14:11;;;;;;;7.88;5.80;;;0.90;99.90;;;;;;6042833;23;20182;-81
2021/01/10 06:16:38;;;;;;;6.50;5.75;;;0.90;99.90;;;;;;6042809;23;20186;-81
2021/01/10 06:19:06;;;;;;;8.45;6.45;;;0.90;99.90;;;;;;6042917;23;20206;-81
2021/01/10 06:21:34;;;;;;;8.23;6.45;;;0.80;99.90;;;;;;6042392;23;20249;-81
2021/01/10 06:24:02;;;;;;;9.13;6.93;;;0.80;99.90;;;;;;6043518;23;20638;-81
2021/01/10 06:26:31;;;;;;;6.38;5.78;;;0.80;99.90;;;;;;6043473;23;20647;-81
2021/01/10 06:29:00;;;;;;;5.88;5.28;;;0.80;99.90;;;;;;6042900;23;20201;-81
2021/01/10 06:31:29;;;;;;;8.68;6.00;;;0.80;99.90;;;;;;6043166;23;20198;-81
2021/01/10 06:34:00;;;;;;;7.40;6.25;;;0.80;99.90;;;;;;6043620;23;20189;-81
2021/01/10 06:36:28;;;;;;;6.60;5.90;;;0.80;99.90;;;;;;6042790;23;20226;-81
2021/01/10 06:39:05;;;;;;;7.93;6.25;;;0.80;99.90;;;;;;6043976;23;20210;-81
2021/01/10 06:42:05;;;;;;;5.15;4.20;;;0.90;99.90;;;;;;6043086;23;20170;-81
2021/01/10 06:44:35;;;;;;;5.68;5.18;;;0.80;99.90;;;;;;6043866;23;20182;-81
2021/01/10 06:47:02;;;;;;;4.97;4.47;;;0.80;99.90;;;;;;6043151;23;20182;-81
2021/01/10 06:49:29;;;;;;;5.22;4.63;;;0.80;99.90;;;;;;6043253;23;20193;-81
2021/01/10 06:51:58;;;;;;;4.57;4.15;;;0.80;99.90;;;;;;6043470;23;20526;-81
2021/01/10 06:54:26;;;;;;;4.53;4.18;;;0.80;99.90;;;;;;6043099;23;20212;-81
2021/01/10 06:56:54;;;;;;;4.20;3.67;;;0.80;99.90;;;;;;6043117;23;20526;-81
2021/01/10 06:59:22;;;;;;;5.65;4.47;;;0.80;99.90;;;;;;6043594;23;20185;-81
2021/01/10 07:02:03;;;;;;;5.53;4.93;;;0.80;99.90;;;;;;6043358;23;20214;-81
2021/01/10 07:05:08;;;;;;;4.78;4.35;;;0.80;99.90;;;;;;6042696;23;20266;-81
2021/01/10 07:07:39;;;;;;;4.68;4.38;;;0.80;99.90;;;;;;6019503;23;20224;-81
2021/01/10 07:10:11;;;;;;;4.35;3.53;;;0.80;99.90;;;;;;6043550;23;20171;-80
2021/01/10 07:12:38;;;;;;;5.70;4.57;;;0.90;99.90;;;;;;6043063;23;20166;-82
2021/01/10 07:15:31;;;;;;;5.10;4.53;;;0.90;99.90;;;;;;6042912;23;20678;-81
2021/01/10 07:18:10;;;;;;;5.40;4.32;;;0.90;99.90;;;;;;5992078;23;20257;-81
2021/01/10 07:20:42;;;;;;;5.65;4.68;;;0.90;99.90;;;;;;6042948;23;20189;-80
2021/01/10 07:23:31;;;;;;;4.18;3.80;;;1.00;99.90;;;;;;6041950;23;20634;-81
2021/01/10 07:26:00;;;;;;;8.38;5.95;;;1.00;99.90;;;;;;6042561;23;20162;-81
2021/01/10 07:28:40;;;;;;;5.60;4.68;;;1.00;99.90;;;;;;6041930;23;20209;-81
2021/01/10 07:31:13;;;;;;;4.80;4.40;;;1.00;99.90;;;;;;6042041;23;20217;-81
2021/01/10 07:33:39;;;;;;;4.60;4.20;;;1.00;99.90;;;;;;6042423;23;20166;-81
2021/01/10 07:36:06;;;;;;;6.20;5.07;;;1.00;99.90;;;;;;6042205;23;20277;-81
2021/01/10 07:38:35;;;;;;;7.55;5.45;;;1.00;99.90;;;;;;6041718;23;20289;-81
2021/01/10 07:41:25;;;;;;;4.95;4.55;;;1.00;99.90;;;;;;6041976;23;20181;-81
2021/01/10 07:43:52;;;;;;;6.78;5.00;;;1.00;99.90;;;;;;6041856;23;20175;-81
2021/01/10 07:46:57;;;;;;;6.60;5.13;;;1.00;99.90;;;;;;6041810;23;20529;-81
2021/01/10 07:49:25;;;;;;;6.63;6.03;;;1.00;99.90;;;;;;6041987;23;20234;-81
2021/01/10 07:51:51;;;;;;;8.35;6.55;;;1.00;99.90;;;;;;6042467;23;20185;-81
2021/01/10 07:54:18;;;;;;;7.05;6.38;;;1.00;99.90;;;;;;6042297;23;20205;-81
2021/01/10 07:56:45;;;;;;;7.50;5.85;;;1.00;99.90;;;;;;6042175;23;20186;-81
2021/01/10 07:59:15;;;;;;;7.50;6.80;;;1.10;99.90;;;;;;6042735;23;20214;-81
2021/01/10 08:01:48;;;;;;;8.18;6.60;;;1.10;99.90;;;;;;6042358;23;20205;-80
2021/01/10 08:04:31;;;;;;;10.27;6.15;;;1.10;99.90;;;;;;6042406;23;20190;-81
2021/01/10 08:06:58;;;;;;;14.35;6.97;;;1.10;99.90;;;;;;6042003;23;20170;-81
2021/01/10 08:09:30;;;;;;;8.05;7.25;;;1.10;99.90;;;;;;6041562;23;20662;-81
2021/01/10 08:11:57;;;;;;;8.57;7.82;;;1.20;99.90;;;;;;6042386;23;20171;-81
2021/01/10 08:14:24;;;;;;;7.40;6.70;;;1.20;99.90;;;;;;6042444;23;20516;-81
2021/01/10 08:16:51;;;;;;;7.55;6.90;;;1.20;99.90;;;;;;6042235;23;20206;-81
2021/01/10 08:19:17;;;;;;;7.10;6.40;;;1.20;99.90;;;;;;6042768;23;20265;-81
2021/01/10 08:21:44;;;;;;;8.77;7.05;;;1.30;99.90;;;;;;6042572;23;20186;-82
2021/01/10 08:24:10;;;;;;;9.38;6.25;;;1.30;99.90;;;;;;6042618;23;20518;-81
2021/01/10 08:26:40;;;;;;;7.78;6.57;;;1.40;99.90;;;;;;6042135;23;20178;-81
2021/01/10 08:29:07;;;;;;;10.57;7.05;;;1.40;99.90;;;;;;6042351;23;20209;-81
2021/01/10 08:31:35;;;;;;;9.00;8.20;;;1.50;99.90;;;;;;6042042;23;20186;-81
2021/01/10 08:34:03;;;;;;;6.38;5.45;;;1.50;99.90;;;;;;6042301;23;20182;-81
2021/01/10 08:36:30;;;;;;;9.07;7.05;;;1.60;99.90;;;;;;6041788;23;20198;-81
2021/01/10 08:38:58;;;;;;;8.75;6.43;;;1.60;99.90;;;;;;6043889;23;20224;-83
2021/01/10 08:41:27;;;;;;;11.55;7.30;;;1.60;99.90;;;;;;6045070;23;20237;-81
2021/01/10 08:43:55;;;;;;;7.72;6.15;;;1.70;99.90;;;;;;6047192;23;20186;-81
2021/01/10 08:46:22;;;;;;;10.30;7.68;;;1.80;99.90;;;;;;6048129;23;20185;-81
2021/01/10 08:48:48;;;;;;;7.57;6.75;;;1.90;99.90;;;;;;6047529;23;20213;-81
2021/01/10 08:51:28;;;;;;;7.90;7.07;;;1.90;99.90;;;;;;6046958;23;20234;-81
2021/01/10 08:53:55;;;;;;;7.80;6.25;;;1.90;99.90;;;;;;6044475;23;20181;-80
2021/01/10 08:56:22;;;;;;;10.18;7.10;;;2.00;99.90;;;;;;6043303;23;20670;-80
2021/01/10 08:58:54;;;;;;;8.10;7.30;;;2.10;99.90;;;;;;6044086;23;20205;-80
2021/01/10 09:01:23;;;;;;;9.82;6.10;;;2.20;99.90;;;;;;6045303;23;20170;-79
2021/01/10 09:04:00;;;;;;;7.03;6.28;;;2.30;99.90;;;;;;6044479;23;20181;-80
2021/01/10 09:06:31;;;;;;;9.65;9.05;;;2.40;99.90;;;;;;6043820;23;20173;-80
2021/01/10 09:09:02;;;;;;;7.55;6.57;;;2.40;99.90;;;;;;6042708;23;20222;-80
2021/01/10 09:11:31;;;;;;;6.72;6.03;;;2.50;99.90;;;;;;6042622;23;20634;-80
2021/01/10 09:14:00;;;;;;;6.43;5.72;;;2.50;99.90;;;;;;6044161;23;20234;-81
2021/01/10 09:16:30;;;;;;;7.90;7.05;;;2.60;99.90;;;;;;6042974;23;20209;-81
2021/01/10 09:18:58;;;;;;;10.35;7.25;;;2.60;99.90;;;;;;6043777;23;20542;-81
2021/01/10 09:21:27;;;;;;;6.90;6.22;;;2.60;99.90;;;;;;6044653;23;20186;-81
2021/01/10 09:23:55;;;;;;;5.90;5.35;;;2.70;99.70;;;;;;6044467;23;20185;-81
2021/01/10 09:26:29;;;;;;;6.50;5.03;;;2.70;99.40;;;;;;6044288;23;20181;-81
2021/01/10 09:28:56;;;;;;;6.40;5.80;;;2.70;99.30;;;;;;6043797;23;20205;-82
2021/01/10 09:31:39;;;;;;;8.20;5.20;;;2.70;98.80;;;;;;6042510;23;20190;-82
2021/01/10 09:34:06;;;;;;;5.43;4.47;;;2.70;98.50;;;;;;6043236;23;20170;-81
2021/01/10 09:36:32;;;;;;;9.55;4.95;;;2.70;98.60;;;;;;6043426;23;20214;-81
2021/01/10 09:38:59;;;;;;;5.38;4.88;;;2.70;98.60;;;;;;6043312;23;20206;-81
2021/01/10 09:41:25;;;;;;;5.82;5.32;;;2.70;98.50;;;;;;6042964;23;20252;-81
2021/01/10 09:43:53;;;;;;;5.80;4.63;;;2.80;98.70;;;;;;6043078;23;20218;-81
2021/01/10 09:46:28;;;;;;;5.95;5.28;;;2.80;98.30;;;;;;6043570;23;20182;-80
2021/01/10 09:48:57;;;;;;;5.80;5.35;;;2.90;98.30;;;;;;6043513;23;20206;-80
2021/01/10 09:51:35;;;;;;;4.93;4.50;;;2.90;98.10;;;;;;6044322;23;20217;-80
2021/01/10 09:54:11;;;;;;;5.88;5.28;;;2.90;97.90;;;;;;6044020;23;20166;-80
2021/01/10 09:56:45;;;;;;;6.28;5.78;;;2.90;98.00;;;;;;6043462;23;20198;-80
2021/01/10 09:59:40;;;;;;;6.30;5.75;;;2.90;98.10;;;;;;6045186;23;20206;-80
2021/01/10 10:02:18;;;;;;;6.63;5.50;;;2.90;98.00;;;;;;6045114;23;20771;-81
2021/01/10 10:04:49;;;;;;;7.22;5.40;;;2.90;98.00;;;;;;6045939;23;20169;-80
2021/01/10 10:07:30;;;;;;;6.78;5.47;;;3.00;98.20;;;;;;6046424;23;20206;-80
2021/01/10 10:10:00;;;;;;;6.30;5.45;;;2.90;97.90;;;;;;6045485;23;20166;-80
2021/01/10 10:12:27;;;;;;;5.07;4.47;;;2.90;98.10;;;;;;6045186;23;20212;-80
2021/01/10 10:14:55;;;;;;;6.55;4.63;;;3.00;98.20;;;;;;6045293;23;20233;-80
2021/01/10 10:17:25;;;;;;;5.50;5.00;;;3.00;98.10;;;;;;6045358;23;20675;-79
2021/01/10 10:19:52;;;;;;;6.25;5.00;;;3.10;97.80;;;;;;6045438;23;20182;-80
2021/01/10 10:22:20;;;;;;;5.57;5.03;;;3.10;97.80;;;;;;6045224;23;20654;-80
2021/01/10 10:24:46;;;;;;;7.15;4.72;;;3.10;97.60;;;;;;6045423;23;20619;-80
2021/01/10 10:27:12;;;;;;;5.72;4.65;;;3.20;97.70;;;;;;6045729;23;20506;-80
2021/01/10 10:29:39;;;;;;;4.28;3.88;;;3.20;97.30;;;;;;6044406;23;20192;-80
2021/01/10 10:32:05;;;;;;;6.68;5.40;;;3.30;97.20;;;;;;6045092;23;20186;-81
2021/01/10 10:34:31;;;;;;;4.07;3.67;;;3.30;97.10;;;;;;6044522;23;20186;-81
2021/01/10 10:36:59;;;;;;;4.55;4.00;;;3.30;97.20;;;;;;6046859;23;20189;-81
2021/01/10 10:39:26;;;;;;;5.53;5.03;;;3.40;97.40;;;;;;6046331;23;20186;-81
2021/01/10 10:41:52;;;;;;;5.30;4.80;;;3.40;97.10;;;;;;6045031;23;20186;-81
2021/01/10 10:44:19;;;;;;;5.22;4.72;;;3.50;97.10;;;;;;6045056;23;20234;-81
2021/01/10 10:46:45;;;;;;;5.30;4.80;;;3.60;96.80;;;;;;6046025;23;20190;-81
2021/01/10 10:49:11;;;;;;;5.65;4.28;;;3.90;97.70;;;;;;6043970;23;20254;-81
2021/01/10 10:51:38;;;;;;;5.05;4.65;;;4.20;97.50;;;;;;6045082;23;20183;-81
2021/01/10 10:54:05;;;;;;;5.05;3.90;;;4.50;97.30;;;;;;6044810;23;20196;-82
2021/01/10 10:56:36;;;;;;;5.88;4.43;;;5.10;96.90;;;;;;6044108;23;20559;-82
2021/01/10 10:59:03;;;;;;;4.60;3.78;;;5.80;96.50;;;;;;6043913;23;20206;-83
2021/01/10 11:01:50;;;;;;;3.63;3.30;;;6.60;95.40;;;;;;6043527;23;20241;-83
2021/01/10 11:05:12;;;;;;;;;;;;;;;;;;;;;
2021/01/10 11:07:52;;;;;;;6.05;5.45;;;7.40;91.50;;;;;;6011444;23;20263;-81
2021/01/10 11:10:19;;;;;;;4.63;4.22;;;7.60;90.50;;;;;;6047084;23;20185;-83
2021/01/10 11:12:45;;;;;;;4.30;3.95;;;7.60;90.00;;;;;;6044619;23;20186;-82
2021/01/10 11:15:13;;;;;;;5.10;4.60;;;7.60;89.10;;;;;;6045534;23;20201;-82
2021/01/10 11:17:39;;;;;;;5.53;5.07;;;7.40;89.30;;;;;;6045428;23;20212;-82
2021/01/10 11:20:07;;;;;;;5.55;4.55;;;7.20;89.00;;;;;;6045285;23;20205;-82
2021/01/10 11:22:35;;;;;;;5.43;4.57;;;7.50;89.90;;;;;;6044903;23;20186;-82
2021/01/10 11:25:01;;;;;;;4.70;4.30;;;7.70;88.70;;;;;;6044602;23;20189;-82
2021/01/10 11:27:28;;;;;;;4.95;4.45;;;7.60;87.30;;;;;;6043966;23;20204;-83
2021/01/10 11:29:55;;;;;;;5.22;4.72;;;7.70;87.20;;;;;;6045218;23;20530;-82
2021/01/10 11:32:21;;;;;;;4.93;4.53;;;7.50;86.30;;;;;;6044082;23;20193;-82
2021/01/10 11:34:47;;;;;;;6.18;4.95;;;7.40;86.80;;;;;;6043948;23;20182;-82
2021/01/10 11:37:13;;;;;;;5.15;4.22;;;7.30;87.30;;;;;;6044724;23;20186;-83
2021/01/10 11:39:40;;;;;;;5.68;4.93;;;7.30;86.90;;;;;;6044622;23;20186;-83
2021/01/10 11:42:06;;;;;;;5.72;5.22;;;7.20;87.20;;;;;;6045101;23;20185;-83
2021/01/10 11:44:33;;;;;;;5.57;5.07;;;7.10;87.60;;;;;;6044754;23;20220;-83
2021/01/10 11:47:01;;;;;;;5.28;4.57;;;7.10;88.40;;;;;;6043374;23;20189;-82
2021/01/10 11:49:28;;;;;;;6.75;5.78;;;7.00;88.20;;;;;;6043931;23;20181;-82
2021/01/10 11:51:55;;;;;;;6.57;5.88;;;6.90;88.20;;;;;;6043885;23;20186;-80
2021/01/10 11:54:22;;;;;;;5.72;4.95;;;6.80;87.90;;;;;;6043984;23;20198;-82
2021/01/10 11:56:48;;;;;;;5.68;5.10;;;6.60;87.70;;;;;;6043796;23;20213;-82
2021/01/10 11:59:16;;;;;;;9.80;6.60;;;6.40;88.50;;;;;;6043718;23;20256;-83
2021/01/10 12:01:44;;;;;;;6.85;6.00;;;6.20;89.50;;;;;;6043549;23;20597;-83
2021/01/10 12:04:11;;;;;;;8.98;5.82;;;6.10;90.00;;;;;;6043137;23;20186;-82
2021/01/10 12:06:38;;;;;;;6.53;5.90;;;5.90;90.20;;;;;;6044524;23;20189;-83
2021/01/10 12:09:08;;;;;;;7.75;6.70;;;5.70;90.20;;;;;;6044735;23;20223;-83
2021/01/10 12:11:34;;;;;;;6.95;6.32;;;5.60;90.50;;;;;;6045057;23;20195;-82
2021/01/10 12:14:00;;;;;;;7.15;6.50;;;5.50;90.80;;;;;;6045000;23;20242;-82
2021/01/10 12:16:27;;;;;;;7.82;6.20;;;5.40;91.10;;;;;;6044969;23;20204;-83
2021/01/10 12:18:54;;;;;;;8.07;7.30;;;5.20;91.10;;;;;;6046046;23;20692;-83
2021/01/10 12:21:20;;;;;;;6.50;5.90;;;5.00;91.60;;;;;;6047013;23;20191;-83
2021/01/10 12:23:46;;;;;;;13.23;7.13;;;4.90;92.00;;;;;;6046979;23;20194;-81
2021/01/10 12:26:14;;;;;;;9.00;7.43;;;4.80;92.30;;;;;;6048587;23;20183;-81
2021/01/10 12:28:41;;;;;;;8.13;7.13;;;4.80;92.50;;;;;;6047789;23;20202;-81
2021/01/10 12:31:08;;;;;;;8.88;6.90;;;4.80;92.70;;;;;;6047459;23;20184;-82
2021/01/10 12:33:34;;;;;;;6.72;6.00;;;4.80;92.90;;;;;;6046655;23;20213;-82
2021/01/10 12:36:02;;;;;;;10.20;7.10;;;4.80;93.00;;;;;;6046657;23;20332;-82
2021/01/10 12:38:28;;;;;;;6.50;5.80;;;4.70;92.80;;;;;;6046985;23;20681;-81
2021/01/10 12:40:55;;;;;;;7.60;5.78;;;4.70;92.80;;;;;;6047139;23;20169;-82
2021/01/10 12:43:21;;;;;;;8.70;6.43;;;4.70;93.00;;;;;;6045840;23;20206;-82
2021/01/10 12:45:47;;;;;;;6.18;5.57;;;4.60;93.00;;;;;;6046410;23;20526;-83
2021/01/10 12:48:17;;;;;;;7.20;6.15;;;4.60;93.10;;;;;;6045269;23;20210;-82
2021/01/10 12:50:43;;;;;;;9.18;6.65;;;4.60;93.30;;;;;;6045769;23;20187;-83
2021/01/10 12:53:10;;;;;;;7.85;7.05;;;4.60;93.30;;;;;;6045962;23;20187;-83
2021/01/10 12:55:37;;;;;;;8.10;6.40;;;4.50;93.40;;;;;;6045795;23;20578;-82
2021/01/10 12:58:03;;;;;;;6.35;5.25;;;4.50;93.40;;;;;;6045324;23;20207;-82
2021/01/10 13:00:29;;;;;;;7.80;7.10;;;4.50;93.40;;;;;;6045200;23;20529;-83